Aérodrome :
LOGIN :

S'inscrire | Disclaimer

   EN    FR    IT 

 










Légende :    VFR   VFR Marginal   IFR   IFR Intensif   IFR Très Intensif
Visi : 
Plafond : 
>= 8 km
>= 3000ft
5 à 8 km
1000 à 3000 ft
1500m à 5 km
500 à 1000 ft
800 à 1500m
200 à 500 ft
< 800m
< 200 ft
Symboles :   Orages  Brouillard  Fortes neiges  Fortes précipitations  Vent > 20 kt
SIGMETs :   Divers  Orages  Givrage  Turbulence  Onde Orograph.  Cendres Volcan.







- Altitude de l'aérodrome : 16 ft
- Code IATA : SDR


LEXJ - Santander Cantabria

DERNIER METAR :
  • 251100Z 30009KT 270V340 9999 FEW018 SCT045 BKN070 20/17 Q1023

METARs EXPIRÉS :
  • 251030Z 32008KT 290V350 9999 -RA SCT027 BKN050 18/16 Q1023
  • 251000Z 30009KT 270V330 9999 FEW024 BKN046 20/15 Q1022
  • 250930Z 27007KT 230V320 9999 FEW024 SCT046 21/16 Q1022
  • 250900Z 24006KT 220V280 9999 FEW022 SCT056 20/15 Q1022
  • 250830Z 24006KT 9999 FEW022 BKN056 18/15 Q1022

TAF TAF LEXJ
Valide du 25 à 09h jusqu'au 26 à 09h UTC


250800Z 2509/2609 29009KT 9999 SCT022 SCT040 TX20/2515Z TN13/2606Z
PROB30
TEMPO 2509/2515 3000 RADZ BKN010
PROB30
TEMPO 2521/2606 3000 BR BKN014
Pas de NOTAMs connus pour ce terrain.



MET'MAP, la Météo Aéronautique d'un coup d'oeil ! - Copyright ORBIFLY Décembre 2007 - Disclaimer

ORBIFLY MET'MAP TEAM :

Programmation & Développement : Alexandra Zaïnal
Conception & Développement : Baudouin d'Aumeries
Co-Programmation & Développement : Marc-Olivier Méhu
Soutien technique & logistique : Manuel Goepfert

Contact : metmap@orbifly.com




SOURCES & CREDITS :

   NOAA